Anna Maria, Florida
Current Conditions -  °F | °C
As of 11:53 AM on Sunday 21 Dec 2014 (Local Time) from KSRQ Reporting Station
Overcast Overcast  
Wind Chill: 25°   Ceiling: 7000
Heat Index: 26°   Visibility: 10mi
Dew Point: 18°   Wind: 9mph
Humidity: 64%   Direction: 160°SSE
Pressure: 30.05"   Gusts: NA
Location:  27.53°N, 82.73°W
Report Text: KSRQ 211653Z 16008KT 10SM OVC070 25/18 A3005 RMK AO2 SLP176 T02500178
Loading
Personal Weather Stations






























Interactive Weather Map New forecast layout! Learn more

10-Day Weather Forecast

Advertisements
Track Severe Weather on mobile